Terminal Aerodrome Forecast
Issued by NWS

Home | Current Version | Previous Version | Text Only | Print | Product List | Glossary On
Versions: 1 2 3 4 5 6 7 8 9 10 11 12 13 14 15 16 17 18 19 20 21 22 23 24 25 26 27 28
000
FTUS46 KOTX 050520
TAFSFF
TAF
KSFF 050520Z 0506/0606 34003KT P6SM VCSH SCT060 BKN080 OVC120
     FM050800 29005KT P6SM -RA SCT030 BKN060 OVC100
     FM051100 28006KT 4SM RA BR SCT015 BKN025 OVC040
     FM051800 26004KT P6SM -SHRA SCT020 BKN030 OVC050
     FM060000 17004KT P6SM VCSH SCT030 BKN050 BKN080=

USA.gov is the U.S. government's official web portal to all federal, state and local government web resources and services.